Arvada, WY (82831)

9:48 PM MDT on March 28, 2015 (GMT -0600)
Gillette-Campbell County | | Change Station
CLOSE
Current Station
Airport
Location: Gillette,
Elevation: 4364 ft
Nearby Weather Stations

Elev 4364 ft 44.34 °N, 105.54 °W | Updated 55 minutes ago

Mostly Cloudy
Mostly Cloudy
52 °F
Feels Like 52 °F
N
22
Wind Variable Wind from NW
Gusts 37 mph

Today
High -- | Low -- °F
--% Chance of Precip.
Yesterday
High -- | Low -- °F
Precip. -- in
6:52 AM 7:26 PM
Waxing Gibbous, 68% visible
Pressure 29.84 in
Visibility 9.0 miles
Clouds Overcast 4300 ft
Dew Point 13 °F
Humidity 21%
Rainfall 0.00 in
Snow Depth Not available.
UV 0 out of 12
Pollen 7.50 out of 12
Air Quality Not available.
Flu Activity Not available.
METAR KGCC 290253Z AUTO 32019G32KT 9SM OVC043 11/M11 A2991 RMK AO2 PK WND 32036/0229 SLP103 T01111106 51051 TSNO $

More Conditions Fewer Conditions

Pressure 29.84 in
Visibility 9.0 miles
Clouds Overcast 4300 ft
Dew Point 13 °F
Humidity 21%
Rainfall 0.00 in
Snow Depth Not available.
UV 0 out of 12
Pollen 7.50 out of 12
Air Quality Not available.
Flu Activity Not available.
METAR KGCC 290253Z AUTO 32019G32KT 9SM OVC043 11/M11 A2991 RMK AO2 PK WND 32036/0229 SLP103 T01111106 51051 TSNO $

More Conditions Fewer Conditions

10-Day Weather Forecast

Almanac

Astronomy

Mar. 28, 2015 Rise Set
Actual Time
Civil Twilight
Nautical Twilight
Astronomical Twilight
Moon
Length of Visible Light
Length of Day
Tomorrow will be .
, % of the Moon is Illuminated

Today's Extremes

State Highs State Lows

Community

WunderPhotos

Upload Photos

1,809,177 photos uploaded!

WunderBlogs® & News

Nearby

Air Quality

  Air Quality AQ Index Pollutant
Not available.

Snow Depth

Station Depth Elevation

Earthquake Activity

City Distance Mag. Time & Date
Minimum magnitude displayed is 2.5.

Coastal Water Temperatures

Place Temperature

Stations

Nearby Weather Stations

Station Location Temp. Windchill Dew Point Humidity Wind Precip. Elev Updated Type
                   
High Wind Warning
Statement as of 4:49 PM MDT on March 28, 2015

... High Wind Warning remains in effect until midnight MDT
tonight...

* impacts... strong winds will result in dangerous travel
conditions for light weight and high profile vehicles. Minor
property damage could also occur.

* Timing... gusts from 50 to 70 mph have been reported acros much
of the area so far today. We expect strong winds 50 to 60 mph
will continue into the early evening before decreasing after 9
PM.

* Winds... west winds 25 to 40 mph... with gusts 50 to 60 mph.